JAIL BOOKING RECAP REPORT
MID# BOOKING TIME NAME YEAR OF BIRTH RACE SEX ARRESTING AGENCY RELEASE TIME CHARGE CRIME TYPE COURT JURISDICTION BONDING COMPANY BOND AMOUNT WARRANT # POLICE CASE#
89476 10/19/2019 8:47:42 PM ADDINGTON, JOHN WILLIAM 1996 White Male UGA PD PUBLIC DRUNKENNESS Misdemeanor $1,000.00 2019-10190101
89476 10/19/2019 8:47:42 PM ADDINGTON, JOHN WILLIAM 1996 White Male UGA PD SIMPLE BATTERY - LEO Misdemeanor $2,500.00 2019-10190101
40878 10/15/2019 12:41:31 PM AIKEN, JOSHUA DALE 1983 White Male CCSO RETURNED FOR COURT Felony SUPCT $0.00 SU14CR0627H
3166723 10/18/2019 4:07:29 AM ALLEN, MENCARTER CENTRAUN 1978 Black/African American Male ACCPD 10/19/2019 7:28PM DUI - ALCOHOL - LESS SAFE Misdemeanor POSTED BOND/BAIL $1,900.00 2019-10180032
3166723 10/18/2019 4:07:29 AM ALLEN, MENCARTER CENTRAUN 1978 Black/African American Male ACCPD 10/19/2019 7:28PM FAILURE TO MAINTAIN LANE/IMPROPER DRIVING ON ROAD Misdemeanor POSTED BOND/BAIL $500.00 2019-10180032
3166723 10/18/2019 4:07:29 AM ALLEN, MENCARTER CENTRAUN 1978 Black/African American Male ACCPD 10/19/2019 7:28PM DUI - ALCOHOL - LESS SAFE Misdemeanor POSTED BOND/BAIL $1,500.00 2019-10180032
51774 10/18/2019 2:15:55 PM ALLOR, DANIEL SEAN 1985 White Male CCSO PROBATION VIOLATION FOR FINGERPRINTABLE CHARGE - SUPERIOR Felony SUPCT $0.00 SU19CR0002R2S 2019-10180029
51774 10/18/2019 2:15:55 PM ALLOR, DANIEL SEAN 1985 White Male CCSO PROBATION VIOLATION FOR FINGERPRINTABLE CHARGE - SUPERIOR Felony SUPCT $0.00 SU18CR0791R2S 2019-10180029
3166733 10/18/2019 11:31:07 PM ANDERSON, RELMON D 1987 Black/African American Male ACCPD BATTERY Misdemeanor CCSO $0.00 MC01CRCR195731
3166733 10/18/2019 11:31:07 PM ANDERSON, RELMON D 1987 Black/African American Male ACCPD OBSTRUCTION OF LEO Misdemeanor CCSO $5,000.00 MC01CRCR195732
3166733 10/18/2019 11:31:07 PM ANDERSON, RELMON D 1987 Black/African American Male ACCPD CROSSING ROADWAY ELSEWHERE THAN AT CROSSWALK Misdemeanor $500.00 2019-10180219
3166733 10/18/2019 11:31:07 PM ANDERSON, RELMON D 1987 Black/African American Male ACCPD OBSTRUCTION OF LEO Misdemeanor $2,500.00 2019-10180219
3166733 10/18/2019 11:31:07 PM ANDERSON, RELMON D 1987 Black/African American Male ACCPD POSSESSION AND USE OF DRUG RELATED OBJECTS Misdemeanor $1,500.00 2019-10180219
3166733 10/18/2019 11:31:07 PM ANDERSON, RELMON D 1987 Black/African American Male ACCPD TAMPERING W/ EVIDENCE Misdemeanor $1,000.00 2019-10180219
3166733 10/18/2019 11:31:07 PM ANDERSON, RELMON D 1987 Black/African American Male ACCPD TAMPERING W/ EVIDENCE Misdemeanor $1,000.00 2019-10180219
3166733 10/18/2019 11:31:07 PM ANDERSON, RELMON D 1987 Black/African American Male ACCPD DRUGS NOT IN ORIGINAL CONTAINER Misdemeanor $500.00 2019-10180219
3166731 10/18/2019 9:21:05 PM ANGLES, IAN CHRISTOPHER 1989 White Male CCSO 10/18/2019 10:39PM MUNICIPAL COURT CONTMEPT WARRANT Misdemeanor CCSO MUNCIPAL COURT STANDING ORDER $303.00 CR1811950
85224 10/16/2019 5:40:01 PM APONTE, DEREK NED HERNEDEZ 1989 White Male CCSO PROBATION VIOLATION FOR FINGERPRINTABLE CHARGE - SUPERIOR Felony CCSO $0.00 SU19CR0317R1 2019-10160035
3164910 10/17/2019 9:02:27 PM ARNOLD, KENNETH DESHAWN 1998 Black/African American Male ACCPD OTHER AGENCY HOLD - CLAYTON CO SO Felony $0.00 2018CR01183
3164910 10/17/2019 9:02:27 PM ARNOLD, KENNETH DESHAWN 1998 Black/African American Male ACCPD POSSESSION AND USE OF DRUG RELATED OBJECTS Misdemeanor $2,500.00 2019-10170211
3164910 10/17/2019 9:02:27 PM ARNOLD, KENNETH DESHAWN 1998 Black/African American Male ACCPD POSSESSION OF COCAINE Felony $2,500.00 2019-10170211
3164758 10/16/2019 6:50:54 PM AUGUSTINE, AALIYAH DAMIA 1998 Black/African American Female ACCPD 10/17/2019 11:19AM THEFT BY TAKING - ALL OTHER Misdemeanor POSTED BOND/BAIL $3,000.00 2019-10160177
3164758 10/16/2019 6:50:54 PM AUGUSTINE, AALIYAH DAMIA 1998 Black/African American Female ACCPD 10/17/2019 11:19AM POSSESSION OF SCHEDULE L CONTROLLED SUBSTANCE Felony POSTED BOND/BAIL $3,000.00 2019-10160177
3164758 10/16/2019 6:50:54 PM AUGUSTINE, AALIYAH DAMIA 1998 Black/African American Female ACCPD 10/17/2019 11:19AM POSSESSION OF SCHEDULE L CONTROLLED SUBSTANCE Felony POSTED BOND/BAIL $1,500.00 2019-10160177
3166726 10/18/2019 5:57:00 PM BALDING, CHESTER THOMAS 1995 White Male ACCPD 10/18/2019 10:19PM OTHER AGENCY HOLD Felony RELEASED TO OTHER AGENCY $0.00 2019-10180171
89068 10/14/2019 9:44:05 PM BANDA, SERGIO MANUEL 1998 White Male CCSO 10/18/2019 1:17PM PROBATION VIOLATION FOR FINGERPRINTABLE CHARGE - STATE Misdemeanor STCRT SENTENCED SERVED $0.00 ST19CR0363R1-ENS
3166698 10/17/2019 2:57:36 PM BARGER, HAILEY NICHOLE 1999 White Female CCSO 10/17/2019 5:23PM SIMPLE BATTERY Misdemeanor MAGCT RECOGNIZANCE $3,000.00 MC01CRCR190005721 2019-10170026
108106 10/15/2019 9:41:54 AM BESS, SHADONJAHNIQUE QUITERRIA 1997 Black/African American Female CCSO 10/15/2019 1:01PM MUNICIPAL COURT CONTMEPT WARRANT Misdemeanor MUNCT MUNCIPAL COURT STANDING ORDER $183.00 CR1905566 2019-10150012
3158780 10/18/2019 12:49:56 PM BLAND, ANTHONY CHRISTOPHER 1999 White Male CCSO PROBATION VIOLATION FOR FINGERPRINTABLE CHARGE - MUNICIPAL Misdemeanor MUNCT $0.00 CR1812851R1 2019-10180024
3166717 10/18/2019 2:08:41 AM BOWDEN, JACOB ANDREW 1998 White Male ACCPD 10/18/2019 5:10AM PUBLIC INTOXICATION Misdemeanor O R PER STCRT MUNCT MACT ORDER $1,000.00 2019-10180014
3166717 10/18/2019 2:08:41 AM BOWDEN, JACOB ANDREW 1998 White Male ACCPD 10/18/2019 5:10AM THEFT BY TAKING - ALL OTHER Misdemeanor O R PER STCRT MUNCT MACT ORDER $1,000.00 2019-10180014
3166619 10/13/2019 2:30:43 AM BOYD, TREY PARKER 1999 White Male ACCPD 10/13/2019 4:26AM BATTERY Misdemeanor O R PER STCRT MUNCT MACT ORDER $1,000.00 2019-10130015
3166619 10/13/2019 2:30:43 AM BOYD, TREY PARKER 1999 White Male ACCPD 10/13/2019 4:26AM POSSESS/DISPLAY/USE ANY FALSE/FRAUDULENT/ALTERED ID Misdemeanor O R PER STCRT MUNCT MACT ORDER $1,000.00 2019-10130015
3166619 10/13/2019 2:30:43 AM BOYD, TREY PARKER 1999 White Male ACCPD 10/13/2019 4:26AM POSSESS/DISPLAY/USE ANY FALSE/FRAUDULENT/ALTERED ID Misdemeanor O R PER STCRT MUNCT MACT ORDER $1,000.00 2019-10130015
39267 10/16/2019 6:21:08 PM BRADFORD, EDDIE DONTAY 1984 Black/African American Male CCSO 10/18/2019 4:09PM STATE COURT BENCH WARRANT Misdemeanor CCSO RECOGNIZANCE $1,000.00 ST19CR1423ENS 2019-10160040
39267 10/16/2019 6:21:08 PM BRADFORD, EDDIE DONTAY 1984 Black/African American Male CCSO 10/18/2019 4:09PM STATE COURT BENCH WARRANT Misdemeanor CCSO RECOGNIZANCE $1,000.00 ST19CR1424ENS 2019-10160040
39267 10/16/2019 6:21:08 PM BRADFORD, EDDIE DONTAY 1984 Black/African American Male CCSO 10/18/2019 4:09PM STATE COURT BENCH WARRANT Misdemeanor CCSO RECOGNIZANCE $0.00 ST19CR1423ENS 2019-10160040
39267 10/16/2019 6:21:08 PM BRADFORD, EDDIE DONTAY 1984 Black/African American Male CCSO 10/18/2019 4:09PM STATE COURT BENCH WARRANT Misdemeanor CCSO RECOGNIZANCE $0.00 ST19CR1424ENS 2019-10160040
3166663 10/15/2019 6:42:22 PM BRAKHAGE, MICHAEL DEWIGHT 1978 White Male CCSO 10/16/2019 12:22PM OTHER AGENCY HOLD Felony RELEASED TO OTHER AGENCY $0.00 2019-10150035
43959 10/14/2019 6:28:46 PM BRIGHTWELL-STOVALL, ANGEL ANITA 1982 Black/African American Female CCSO 10/18/2019 1:51PM STATE COURT BENCH WARRANT Misdemeanor STCRT O R PER STCRT MUNCT MACT ORDER $1,000.00 ST19CR1571 2019-10140015
50255 10/13/2019 3:47:26 AM BROWN, ALFONZA ZAVIER 1986 Black/African American Male GSP 10/13/2019 10:56AM DUI - ALCOHOL - LESS SAFE Misdemeanor POSTED BOND/BAIL $1,500.00 036545H
50255 10/13/2019 3:47:26 AM BROWN, ALFONZA ZAVIER 1986 Black/African American Male GSP 10/13/2019 10:56AM DUI - ALCOHOL - LESS SAFE Misdemeanor POSTED BOND/BAIL $1,500.00 036545H
70485 10/15/2019 4:04:43 PM BROWN, DWIGHT DONTERRIUS 1992 Black/African American Male CCSO POSS OF FIREARM/KNIFE DURING COMMISSION OF/ATTEMPT TO COMMIT CERTAIN FELONIES Felony CCSO $10,000.00 MC01CRCR195414 2019-10150024
70485 10/15/2019 4:04:43 PM BROWN, DWIGHT DONTERRIUS 1992 Black/African American Male CCSO AGGRAVATED ASSAULT Felony CCSO $0.00 MC01CRCR195413 2019-10150024
3165234 10/14/2019 4:23:45 PM BROWN, ISAAC MAURICE 1999 Black/African American Male ACCPD 10/15/2019 9:38AM WARRANT SERVICE Felony RELEASED TO OTHER AGENCY $0.00 2019-10140101
3165237 10/14/2019 5:01:04 PM BROWN, ISAIAH NATHANEL 1998 Black/African American Male ACCPD 10/16/2019 9:00PM THEFT BY SHOPLIFTING Misdemeanor POSTED BOND/BAIL $1,500.00 2019-10140101
3162381 10/16/2019 6:35:39 PM BROWN, TANYA STEVEENA 1999 Black/African American Female CCSO PROBATION VIOLATION FOR FINGERPRINTABLE CHARGE - MUNICIPAL Misdemeanor MUNCT $0.00 CR1903579R1 2019-10160041
3166736 10/18/2019 11:46:05 PM BROWNER, KEIOSHIA NICHAI 1996 Black/African American Female GSP 10/19/2019 5:55PM OTHER AGENCY HOLD - WALTON CO SO Felony RELEASED TO OTHER AGENCY $0.00
3166757 10/19/2019 3:41:42 AM BUCHANAN, CLAYTON JAMES 1998 White Male ACCPD 10/19/2019 2:04PM PUBLIC INTOXICATION Misdemeanor O R PER STCRT MUNCT MACT ORDER $1,000.00 2019-10190029
3166757 10/19/2019 3:41:42 AM BUCHANAN, CLAYTON JAMES 1998 White Male ACCPD 10/19/2019 2:04PM POSSESS/DISPLAY/USE ANY FALSE/FRAUDULENT/ALTERED ID Misdemeanor O R PER STCRT MUNCT MACT ORDER $1,000.00 2019-10190029
71626 10/15/2019 9:50:08 AM BUGGS, TYRONE 1956 Black/African American Male CCSO PROBATION VIOLATION FOR FINGERPRINTABLE CHARGE - SUPERIOR Felony SUPCT $0.00 SU11CR044R17
3166661 10/15/2019 5:15:22 PM BUTTS, DARIUS JAMAL 1989 Black/African American Male ACCPD 10/16/2019 10:35AM OTHER AGENCY HOLD Felony RELEASED TO OTHER AGENCY $0.00 2019-10150120
87112 10/14/2019 11:05:20 AM CAMPBELL, JALEEL SAVONLAKEL 1997 Black/African American Male CCSO 10/15/2019 4:55AM PROBATION VIOLATION FOR FINGERPRINTABLE CHARGE - SUPERIOR Felony SUPCT SENTENCED TO STATE $0.00 SU15CR0589R6L
55699 10/16/2019 10:15:08 AM CAREY, JACOB 1955 Black/African American Male ACCPD CRIMINAL TRESPASS - ENTERS ONTO PROPERTY AFTER NOTICE GIVEN Misdemeanor $1,000.00 2019-10160041
3166715 10/17/2019 11:17:21 PM CARTER, JAMES EDWARD 1982 Black/African American Male ACCPD 10/18/2019 10:17AM PUBLIC INTOXICATION Misdemeanor O R PER STCRT MUNCT MACT ORDER $1,000.00 2019-10170247
3166715 10/17/2019 11:17:21 PM CARTER, JAMES EDWARD 1982 Black/African American Male ACCPD 10/18/2019 10:17AM DISORDERLY CONDUCT Misdemeanor O R PER STCRT MUNCT MACT ORDER $1,000.00 2019-10170247
3166634 10/13/2019 8:29:10 PM CHAMBERS, RYFEAL D 1991 Black/African American Male ACCPD OBSTRUCTION OF LEO Misdemeanor $1,500.00 2019-10130190
3166634 10/13/2019 8:29:10 PM CHAMBERS, RYFEAL D 1991 Black/African American Male ACCPD LITTERING $1,000.00 2019-10130190
3166634 10/13/2019 8:29:10 PM CHAMBERS, RYFEAL D 1991 Black/African American Male ACCPD GIVING FALSE NAME/ADDRESS/BIRTHDATE TO LEO Misdemeanor $1,000.00 2019-10130190
3166634 10/13/2019 8:29:10 PM CHAMBERS, RYFEAL D 1991 Black/African American Male ACCPD BATTERY - FV Misdemeanor CCSO $2,500.00 MC01CRCR195188
3166634 10/13/2019 8:29:10 PM CHAMBERS, RYFEAL D 1991 Black/African American Male ACCPD BATTERY - FV Misdemeanor CCSO $2,500.00 MC01CRCR195188
3166634 10/13/2019 8:29:10 PM CHAMBERS, RYFEAL D 1991 Black/African American Male ACCPD BATTERY - FV Misdemeanor CCSO $2,500.00 MC01CRCR195188
3166634 10/13/2019 8:29:10 PM CHAMBERS, RYFEAL D 1991 Black/African American Male ACCPD BATTERY - FV Misdemeanor CCSO $2,500.00 MC01CRCR195188
3166634 10/13/2019 8:29:10 PM CHAMBERS, RYFEAL D 1991 Black/African American Male ACCPD AGGRAVATED ASSAULT - FV Felony CCSO $0.00 MC01CRCR195440
3166634 10/13/2019 8:29:10 PM CHAMBERS, RYFEAL D 1991 Black/African American Male ACCPD AGGRAVATED ASSAULT - FV Felony CCSO $0.00 MC01CRCR195440
3166634 10/13/2019 8:29:10 PM CHAMBERS, RYFEAL D 1991 Black/African American Male ACCPD AGGRAVATED ASSAULT - FV Felony CCSO $0.00 MC01CRCR195440
3166634 10/13/2019 8:29:10 PM CHAMBERS, RYFEAL D 1991 Black/African American Male ACCPD BATTERY - FV Misdemeanor CCSO $0.00 MC01CRCR195441
3166634 10/13/2019 8:29:10 PM CHAMBERS, RYFEAL D 1991 Black/African American Male ACCPD BATTERY - FV Misdemeanor CCSO $0.00 MC01CRCR195441
3166634 10/13/2019 8:29:10 PM CHAMBERS, RYFEAL D 1991 Black/African American Male ACCPD OTHER AGENCY HOLD Felony $0.00 18W19663
39268 10/19/2019 5:51:47 AM CHANDLER, JOHNNY ELWAY 1977 White Male CCSO OTHER AGENCY HOLD - MADISON CO SO Felony SUPCT $0.00 2019-10190003
39268 10/19/2019 5:51:47 AM CHANDLER, JOHNNY ELWAY 1977 White Male CCSO PROBATION VIOLATION FOR FINGERPRINTABLE CHARGE - SUPERIOR Felony SUPCT $0.00 SU15CR0824R4 2019-10190003
39268 10/19/2019 5:51:47 AM CHANDLER, JOHNNY ELWAY 1977 White Male CCSO OTHER AGENCY HOLD - JACKSON CO SO Felony SUPCT $0.00 2019-10190003
90791 10/16/2019 1:37:15 PM CHAVEZ, CHARLY EMERSON 1995 White Male CCSO 10/18/2019 3:04PM PROBATION VIOLATION FOR FINGERPRINTABLE CHARGE - SUPERIOR Misdemeanor CCSO SENTENCED SERVED $0.00 SU18CR0579R1 2019-10160021
17452 10/17/2019 8:30:50 PM CHEEK, CAGER EDWARD 1977 White Male CCSO THEFT BY SHOPLIFTING Felony MAGCT $5,000.00 MC01CRCR195566 2019-10170036
17452 10/17/2019 8:30:50 PM CHEEK, CAGER EDWARD 1977 White Male CCSO CRIMINAL TRESPASS - ENTERS ONTO PROPERTY AFTER NOTICE GIVEN Misdemeanor MAGCT $1,500.00 MC01CRCR195567 2019-10170036
102118 10/15/2019 12:14:24 PM CLARK, JARVIS LARUE 2000 Black/African American Male CCSO RETURNED FOR COURT Felony SUPCT $0.00 SU18CR0445N
29694 10/17/2019 12:21:50 PM COLLINS, TIMOTHY LEE 1970 White Male CCSO RETURNED FOR COURT Felony SUPCT $0.00 SU18CR0316
3157566 10/18/2019 6:40:49 PM CONWAY, KADIN MITCHELL 1996 White Male CCSO PROBATION VIOLATION FOR FINGERPRINTABLE CHARGE - STATE Misdemeanor STCRT $0.00 ST19CR0364R1CEA
76668 10/15/2019 3:39:21 PM COOPER, DAVEON ANTWON 1993 Black/African American Male CCSO PROBATION VIOLATION FOR FINGERPRINTABLE CHARGE - SUPERIOR Misdemeanor CCSO $0.00 SU17CR0582R1 2019-10150025
53003 10/13/2019 2:43:38 PM CORNELIUS, TEAWANNA LESHAWN 1988 Black/African American Female CCSO 10/14/2019 11:20AM THEFT OF LOST/MISLAID PROPERTY Misdemeanor RECOGNIZANCE $3,000.00 2019-10130012
3166639 10/14/2019 12:40:56 AM CORNWELL, AMBER LYNN 1996 White Female ACCPD 10/14/2019 11:24AM PUBLIC INTOXICATION Misdemeanor RECOGNIZANCE $1,000.00 2019-10130260
76116 10/14/2019 9:45:05 PM COX, BILLY TOMMY 1984 White Male ACCPD 10/15/2019 6:19PM CRIMINAL TRESPASS - ENTERS ONTO PROPERTY AFTER NOTICE GIVEN Misdemeanor RECOGNIZANCE $3,000.00 2019-10140170
3166631 10/13/2019 1:23:34 PM CRISWELL, SAMANTHA RENE 1990 White Female ACCPD OBSTRUCTION OF LEO Misdemeanor $1,500.00 2019-10130116
3166631 10/13/2019 1:23:34 PM CRISWELL, SAMANTHA RENE 1990 White Female ACCPD DISORDERLY CONDUCT Misdemeanor $1,000.00 2019-10130116
3166683 10/16/2019 9:06:02 PM CUNNINGHAM, DEDRIC LAWAYNE 2001 Black/African American Male ACCPD AGGRAVATED ASSAULT Felony $1,000.00 2019-10160158
3166683 10/16/2019 9:06:02 PM CUNNINGHAM, DEDRIC LAWAYNE 2001 Black/African American Male ACCPD AGGRAVATED ASSAULT Felony $1,000.00 2019-10160158
3166683 10/16/2019 9:06:02 PM CUNNINGHAM, DEDRIC LAWAYNE 2001 Black/African American Male ACCPD AGGRAVATED ASSAULT Felony $1,000.00 2019-10160158
3166683 10/16/2019 9:06:02 PM CUNNINGHAM, DEDRIC LAWAYNE 2001 Black/African American Male ACCPD AGGRAVATED ASSAULT Felony $1,000.00 2019-10160158
3166683 10/16/2019 9:06:02 PM CUNNINGHAM, DEDRIC LAWAYNE 2001 Black/African American Male ACCPD POSS OF FIREARM/KNIFE DURING COMMISSION OF/ATTEMPT TO COMMIT CERTAIN FELONIES Felony $1,700.00 2019-10160158
3166683 10/16/2019 9:06:02 PM CUNNINGHAM, DEDRIC LAWAYNE 2001 Black/African American Male ACCPD TAMPERING W/ EVIDENCE Felony $1,000.00 2019-10160158
3166683 10/16/2019 9:06:02 PM CUNNINGHAM, DEDRIC LAWAYNE 2001 Black/African American Male ACCPD THEFT BY RECEIVING STOLEN PROPERTY Felony $1,000.00 2019-10160158
3729 10/17/2019 5:13:56 PM CURRY, MICHAEL 1959 Black/African American Male CCSO PROBATION VIOLATION FOR FINGERPRINTABLE CHARGE - MUNICIPAL Misdemeanor MUNCT $0.00 CR1814152R1 2019-10170032
3166763 10/19/2019 8:36:24 PM DALLAS, CLARICE B 1984 Black/African American Female ACCPD 10/19/2019 9:30PM DISORDERLY CONDUCT Misdemeanor O R PER STCRT MUNCT MACT ORDER $1,000.00 2019-10190166
3166729 10/18/2019 8:37:24 PM DANIELS, PRINCE KASHMERE 1985 Black/African American Male CCSO 10/19/2019 5:27PM VIOLATION OF FAMILY VIOLENCE ORDER Misdemeanor CCSO POSTED BOND/BAIL $2,500.00 ST19WR0001
3166729 10/18/2019 8:37:24 PM DANIELS, PRINCE KASHMERE 1985 Black/African American Male CCSO 10/19/2019 5:27PM GIVING FALSE NAME/ADDRESS/BIRTHDATE TO LEO Misdemeanor CCSO POSTED BOND/BAIL $3,200.00 ST19WR0002
3166760 10/19/2019 4:49:55 PM DAVIS, CURTIS LLOYD 1986 Black/African American Male ACCPD CRIMINAL TRESPASS - DAMAGE TO PROPERTY - FV Misdemeanor $0.00 2019-10190126
3166629 10/13/2019 10:09:10 AM DION, MARK RAYMOND 1998 White Male ACCPD 10/14/2019 11:18AM SIMPLE BATTERY - FAMILY VIOLENCE Misdemeanor RECOGNIZANCE $3,000.00 2019-10130076
3159221 10/14/2019 8:52:16 PM DOWDY, MARCUS JAMAR 2001 Black/African American Male CCSO PROBATION VIOLATION FOR FINGERPRINTABLE CHARGE - SUPERIOR Felony SUPCT $0.00 SU18CR0996R1-L
1358 10/15/2019 10:42:12 AM DULANEY, DANIEL EDWARD 1959 White Male ACCPD 10/18/2019 11:58AM DRIVING WHILE LICENSE SUSPENDED/REVOKED Misdemeanor MUNCIPAL COURT STANDING ORDER $1,500.00 2019-10150060
1358 10/15/2019 10:42:12 AM DULANEY, DANIEL EDWARD 1959 White Male ACCPD 10/18/2019 11:58AM ALTERATION OF LICENSE PLATES Misdemeanor MUNCIPAL COURT STANDING ORDER $1,000.00 2019-10150060
1358 10/15/2019 10:42:12 AM DULANEY, DANIEL EDWARD 1959 White Male ACCPD 10/18/2019 11:58AM OPERATION OF UNREGISTERED VEHICLE W/O CURRENT LICENSE PLATE/REVALIDATION DECAL Misdemeanor MUNCIPAL COURT STANDING ORDER $1,000.00 2019-10150060
1358 10/15/2019 10:42:12 AM DULANEY, DANIEL EDWARD 1959 White Male ACCPD 10/18/2019 11:58AM KNOWINGLY DRIVING MV ON SUSPENDED/CANCELED/REVOKED REGISTRATION Misdemeanor MUNCIPAL COURT STANDING ORDER $1,000.00 2019-10150060
1358 10/15/2019 10:42:12 AM DULANEY, DANIEL EDWARD 1959 White Male ACCPD 10/18/2019 11:58AM FAILURE TO YIELD ENTERING ROADWAY Misdemeanor MUNCIPAL COURT STANDING ORDER $1,000.00 2019-10150060
1358 10/15/2019 10:42:12 AM DULANEY, DANIEL EDWARD 1959 White Male ACCPD 10/18/2019 11:58AM NO PROOF OF INSURANCE Misdemeanor MUNCIPAL COURT STANDING ORDER $1,000.00 2019-10150060
57202 10/20/2019 12:27:20 AM DUNCAN, JOSHUA ALEXANDER 1988 White Male ACCPD OBSTRUCTION OF LEO Misdemeanor $5,000.00 2019-10200001
57202 10/20/2019 12:27:20 AM DUNCAN, JOSHUA ALEXANDER 1988 White Male ACCPD PUBLIC INTOXICATION Misdemeanor $500.00 2019-10200001
3160863 10/17/2019 1:46:09 AM DUTCHER, BRANDON PAUL 2000 White Male UGA PD 10/17/2019 5:28AM POSSESSING ANY ALCOHOLIC BEVERAGE UNDER 21 YOA Misdemeanor POSTED BOND/BAIL $500.00 2019-10170001
3160863 10/17/2019 1:46:09 AM DUTCHER, BRANDON PAUL 2000 White Male UGA PD 10/17/2019 5:28AM POSSESS/DISPLAY/USE ANY FALSE/FRAUDULENT/ALTERED ID Misdemeanor POSTED BOND/BAIL $2,500.00 2019-10170001
3160863 10/17/2019 1:46:09 AM DUTCHER, BRANDON PAUL 2000 White Male UGA PD 10/17/2019 5:28AM POSSESSION AND USE OF DRUG RELATED OBJECTS Misdemeanor POSTED BOND/BAIL $3,250.00 2019-10170001
3166780 10/20/2019 1:36:22 AM EASLEY, CATHY ELAINE 1972 Black/African American Female GSP $0.00
35969 10/16/2019 8:17:40 PM EDWARDS, BODARRUS QUINTAY 1982 Black/African American Male CCSO PROBATION VIOLATION FOR FINGERPRINTABLE CHARGE - STATE Misdemeanor STCRT $0.00 ST17CR1553R1ENS 2019-10160043
35969 10/16/2019 8:17:40 PM EDWARDS, BODARRUS QUINTAY 1982 Black/African American Male CCSO DRIVING WHILE LICENSE SUSPENDED/REVOKED Misdemeanor MUNCT $1,000.00 CR1905914 2019-10160043
35969 10/16/2019 8:17:40 PM EDWARDS, BODARRUS QUINTAY 1982 Black/African American Male CCSO HIT AND RUN - DUTY OF DRIVER TO STOP AT/RETURN TO SCENE OF ACCIDENT Misdemeanor MUNCT $1,000.00 CR190515 2019-10160043
35969 10/16/2019 8:17:40 PM EDWARDS, BODARRUS QUINTAY 1982 Black/African American Male CCSO FOLLOWING TOO CLOSELY Misdemeanor MUNCT $1,000.00 CR1905916 2019-10160043
85184 10/18/2019 1:21:24 PM ELLIS, MARCUS RASHAD 1988 Black/African American Male CCSO PROBATION VIOLATION FOR FINGERPRINTABLE CHARGE - SUPERIOR Felony SUPCT $0.00 SU16CR0236R5H 2019-10180022
3166627 10/13/2019 4:59:44 AM ELLIS, STANFORD THOMAS 1998 White Male ACCPD 10/13/2019 5:29AM DISORDERLY CONDUCT Misdemeanor RECOGNIZANCE $1,000.00 2019-10130053
3164086 10/16/2019 11:00:13 AM EVANS, BRANDON DA'JON 1996 Black/African American Male ACCPD CRIMINAL TRESPASS - ENTERS ONTO PROPERTY AFTER NOTICE GIVEN Misdemeanor $1,000.00 2019-10160073
3166614 10/13/2019 2:07:42 AM FERGUSON, JOHN TRENTON 1999 White Male ACCPD 10/13/2019 4:09AM DISORDERLY CONDUCT Misdemeanor O R PER STCRT MUNCT MACT ORDER $1,000.00 2019-10130013
3166614 10/13/2019 2:07:42 AM FERGUSON, JOHN TRENTON 1999 White Male ACCPD 10/13/2019 4:09AM POSSESS/DISPLAY/USE ANY FALSE/FRAUDULENT/ALTERED ID Misdemeanor O R PER STCRT MUNCT MACT ORDER $1,000.00 2019-10130013
3166622 10/13/2019 2:54:57 AM FITZPATRICK, JASON REED 1997 White Male ACCPD 10/13/2019 6:34AM DISORDERLY CONDUCT Misdemeanor POSTED BOND/BAIL $500.00 2019-10130039
3166622 10/13/2019 2:54:57 AM FITZPATRICK, JASON REED 1997 White Male ACCPD 10/13/2019 6:34AM PUBLIC INTOXICATION Misdemeanor POSTED BOND/BAIL $500.00 2019-10130039
53446 10/16/2019 3:04:07 PM FLEMING, DEMETRIA LATRICE 1988 Black/African American Female CCSO PROBATION VIOLATION FOR FINGERPRINTABLE CHARGE - SUPERIOR Felony CCSO $0.00 SU10CR0407R4 2019-10160028
3153823 10/13/2019 9:25:38 AM FLORES, ARIANA YARELI 1998 White Female CCSO 10/14/2019 9:00AM DRIVING WHILE LICENSE SUSPENDED/REVOKED Misdemeanor WEEKENDER / INTERMITTENT $1,500.00 CR1909098
82815 10/17/2019 12:46:12 PM GALAZA, JASON WADE 1996 White Male CCSO RETURNED FOR COURT Felony $0.00
3166769 10/19/2019 10:53:40 PM GARCIA, ANTONIO 1976 White Male ACCPD DRIVING WHILE LICENSE SUSPENDED/REVOKED Misdemeanor $1,500.00 2019-10190219
3166769 10/19/2019 10:53:40 PM GARCIA, ANTONIO 1976 White Male ACCPD OPERATION OF UNREGISTERED VEHICLE W/O CURRENT LICENSE PLATE/REVALIDATION DECAL Misdemeanor $500.00 2019-10190219
74596 10/13/2019 2:39:21 PM GARNER, MATTHEW WILSON 1987 White Male CCSO PROBATION VIOLATION FOR FINGERPRINTABLE CHARGE - SUPERIOR Felony CCSO $0.00 SU14CR0882R6 2019-10130009
74596 10/13/2019 2:39:21 PM GARNER, MATTHEW WILSON 1987 White Male CCSO PROBATION VIOLATION FOR FINGERPRINTABLE CHARGE - SUPERIOR Felony CCSO $0.00 SU19CR0347R2 2019-10130009
54776 10/15/2019 12:02:36 PM GARY, TRAVOINE DEMARIO 1988 Black/African American Male CCSO RETURNED FOR COURT Felony SUPCT $0.00 SU16CR0237H
3162038 10/13/2019 5:36:47 PM GILBERT, TRACY LEANN 1975 White Female ACCPD 10/13/2019 8:50PM THEFT BY SHOPLIFTING Misdemeanor POSTED BOND/BAIL $1,500.00 2019-10130168
1438 10/16/2019 6:51:01 PM GILES, BOBBY WILLIAM 1975 White Male CCSO PROBATION VIOLATION FOR FINGERPRINTABLE CHARGE - MUNICIPAL Misdemeanor MUNCT $0.00 CR1813764R1 2019-10160042
78304 10/17/2019 12:44:43 PM GLENN, CHRISTOPHER ANTOINE 1993 Black/African American Male CCSO RETURNED FOR COURT Felony SUPCT $0.00 SU19CR0630N
3166684 10/17/2019 12:18:01 AM GLOSTER, ASHLEY NICOLE 1997 Black/African American Female ACCPD 10/17/2019 2:36AM DRIVING WHILE LICENSE SUSPENDED/REVOKED Misdemeanor O R PER STCRT MUNCT MACT ORDER $1,000.00 2019-10160249
3166684 10/17/2019 12:18:01 AM GLOSTER, ASHLEY NICOLE 1997 Black/African American Female ACCPD 10/17/2019 2:36AM OBEDIENCE TO TRAFFIC-CONTROL DEVICES REQUIRED Misdemeanor O R PER STCRT MUNCT MACT ORDER $1,000.00 2019-10160249
45941 10/14/2019 11:27:31 AM GOOLSBY, BYRON ARLO 1984 Black/African American Male CCSO 10/15/2019 4:56AM PROBATION VIOLATION FOR FINGERPRINTABLE CHARGE - SUPERIOR Felony SUPCT SENTENCED TO STATE $0.00 SU16CR0282R6S
54582 10/15/2019 6:15:47 PM GOTTLIEB, EVAN HOWARD 1964 White Male CCSO CRUELTY TO CHILDREN - 3RD DEGREE Misdemeanor $2,000.00
54582 10/15/2019 6:15:47 PM GOTTLIEB, EVAN HOWARD 1964 White Male CCSO SIMPLE BATTERY - FAMILY VIOLENCE Misdemeanor $3,000.00
54582 10/15/2019 6:15:47 PM GOTTLIEB, EVAN HOWARD 1964 White Male CCSO AGGRAVATED ASSAULT Felony MAGCT $0.00 MC01CRCR195681 2019-10150030
54582 10/15/2019 6:15:47 PM GOTTLIEB, EVAN HOWARD 1964 White Male CCSO VIOLATION OF FAMILY VIOLENCE ORDER Misdemeanor MAGCT $5,000.00 MC01CRCR195682 2019-10150030
54582 10/15/2019 6:15:47 PM GOTTLIEB, EVAN HOWARD 1964 White Male CCSO CRUELTY TO CHILDREN - 3RD DEGREE Misdemeanor MAGCT $5,000.00 MC01CRCR195682 2019-10150030
3166716 10/18/2019 1:48:19 AM GREGORY, CAMDEN OBRIEN 1998 White Male ACCPD 10/18/2019 5:07AM OBSTRUCTION OF LEO Misdemeanor O R PER STCRT MUNCT MACT ORDER $1,000.00 2019-10180014
3166716 10/18/2019 1:48:19 AM GREGORY, CAMDEN OBRIEN 1998 White Male ACCPD 10/18/2019 5:07AM THEFT BY TAKING - ALL OTHER Misdemeanor O R PER STCRT MUNCT MACT ORDER $1,000.00 2019-10180014
3166773 10/19/2019 11:39:32 PM HANCOCK, JEFFERY F 1976 White Male ACCPD PUBLIC INTOXICATION Misdemeanor $1,000.00 2019-10190236
3166725 10/18/2019 1:50:21 PM HANSFORD, HUNTER LANE 1994 White Male CCSO FAILURE TO APPEAR FOR FINGERPRINTABLE CHARGE Misdemeanor MUNCT $0.00 CR1807069 2019-10180027
3155787 10/18/2019 12:47:21 AM HARVEY, TINA LOUISE 1979 Black/African American Female GSP FAILURE TO APPEAR FOR FINGERPRINTABLE CHARGE Felony $0.00 SU18CR0653Q
3155787 10/18/2019 12:47:21 AM HARVEY, TINA LOUISE 1979 Black/African American Female GSP KNOWINGLY DRIVING MV ON SUSPENDED/CANCELED/REVOKED REGISTRATION Misdemeanor $500.00 034603H
3155787 10/18/2019 12:47:21 AM HARVEY, TINA LOUISE 1979 Black/African American Female GSP DRIVING WHILE LICENSE SUSPENDED/REVOKED Misdemeanor $1,500.00 034602H
3155787 10/18/2019 12:47:21 AM HARVEY, TINA LOUISE 1979 Black/African American Female GSP NO PROOF OF INSURANCE Misdemeanor $1,000.00 034601H
3155787 10/18/2019 12:47:21 AM HARVEY, TINA LOUISE 1979 Black/African American Female GSP OPERATION OF UNREGISTERED VEHICLE W/O CURRENT LICENSE PLATE/REVALIDATION DECAL Misdemeanor $500.00 034602H
3166761 10/19/2019 7:43:48 PM HODELL, DANIEL MARTIN 2000 White Male ACCPD 10/19/2019 9:34PM SPEEDING - MAXIMUM LIMITS Misdemeanor O R PER STCRT MUNCT MACT ORDER $1,000.00 2019-10190151
3166761 10/19/2019 7:43:48 PM HODELL, DANIEL MARTIN 2000 White Male ACCPD 10/19/2019 9:34PM DUI - ALCOHOL - LESS SAFE Misdemeanor O R PER STCRT MUNCT MACT ORDER $1,000.00 2019-10190151
3164039 10/16/2019 11:47:40 AM HOFFMAN, CLAYTON JAMES 1992 White Male CCSO 10/17/2019 5:45AM DUI - ALCOHOL - LESS SAFE Misdemeanor SENTENCED SERVED $1,500.00 CR1908061
3166652 10/15/2019 2:29:30 AM HOLDER, WILLIAM JESSE 1998 Unknown Male CCSO 10/15/2019 3:36AM RECKLESS CONDUCT Misdemeanor O R PER STCRT MUNCT MACT ORDER $1,000.00 MC01CRCR195680
3166666 10/15/2019 8:41:23 PM HUTSON, ANNA MARIE 1986 White Female CCSO 10/17/2019 11:12AM THEFT BY SHOPLIFTING Misdemeanor CCSO RECOGNIZANCE $3,000.00 CR1907536
3166775 10/20/2019 1:01:36 AM ISON, ALEXANDRIA JANILEEN 2000 Black/African American Female ACCPD OTHER AGENCY HOLD - GWINNETT CO SO Felony $0.00 M1902519
26077 10/14/2019 2:08:51 PM ISREAL, WALTER III NMN 1956 Black/African American Male ACCPD 10/15/2019 6:25PM SIMPLE BATTERY - FAMILY VIOLENCE Misdemeanor POSTED BOND/BAIL $1,300.00 2019-10140081
3166616 10/13/2019 2:21:13 AM JARRELL, JOHN GRAYSON 1996 White Male ACCPD 10/13/2019 3:32AM PUBLIC INTOXICATION Misdemeanor POSTED BOND/BAIL $500.00 2019-10130025
57223 10/19/2019 5:38:35 PM JARRELLS, VIOLET ATHENA 1986 Black/African American Male CCSO STATE COURT BENCH WARRANT Misdemeanor STCRT $0.00 ST19CR0445 2019-10190011
87495 10/15/2019 5:45:29 PM JOHNSON, LETITIA MARIE 1986 Black/African American Female CCSO 10/18/2019 1:01PM PROBATION VIOLATION FOR FINGERPRINTABLE CHARGE - STATE Misdemeanor STCRT COURT ORDER RELEASE $0.00 ST18CR2116R1ENS 2019-10150034
87495 10/15/2019 5:45:29 PM JOHNSON, LETITIA MARIE 1986 Black/African American Female CCSO 10/18/2019 1:01PM MUNICIPAL COURT CONTMEPT WARRANT Misdemeanor COURT ORDER RELEASE $406.00 CR1903396 2019-10150034
3166642 10/14/2019 6:28:25 PM JOHNSON, SHAWANDA NICOLE 1980 Black/African American Female CCSO 10/14/2019 9:11PM MUNICIPAL COURT CONTMEPT WARRANT Misdemeanor MUNCT MUNCIPAL COURT STANDING ORDER $313.00 CR1901227 2019-10140018
57717 10/17/2019 8:27:02 PM JONES, ANRICQUES COSHAWN 1988 Black/African American Female CCSO 10/18/2019 5:45PM SUPERIOR COURT CONTEMPT Civil CCSO SENTENCED SERVED $0.00 SU16CR0951R2S
3166623 10/13/2019 3:09:06 AM JONES, LEFREDERICK D 1991 Black/African American Male ACCPD 10/13/2019 6:39AM DISORDERLY CONDUCT Misdemeanor POSTED BOND/BAIL $500.00 2019-10130037
3166658 10/15/2019 3:12:52 PM JORDAN, DEBORAH LOUISE 1955 White Female ACCPD 10/16/2019 11:56AM CRIMINAL TRESPASS - ENTERS ONTO PROPERTY AFTER NOTICE GIVEN Misdemeanor RECOGNIZANCE $3,000.00 2019-10150101
3152782 10/17/2019 1:31:53 PM KING, AARON LEON 1966 Black/African American Male CCSO MUNICIPAL COURT BENCH WARRANT Misdemeanor MUNCT $0.00 CR1806123 2019-10170024
3152782 10/17/2019 1:31:53 PM KING, AARON LEON 1966 Black/African American Male CCSO PROBATION VIOLATION FOR FINGERPRINTABLE CHARGE - SUPERIOR Felony SUPCT $0.00 SU18CR0364R2S 2019-10170024
3166625 10/13/2019 4:14:50 AM LAPLANTE, ASHLEY 2000 White Female ACCPD 10/13/2019 4:57AM POSSESSING ANY ALCOHOLIC BEVERAGE UNDER 21 YOA Misdemeanor RECOGNIZANCE $1,000.00 2019-10130019
3166625 10/13/2019 4:14:50 AM LAPLANTE, ASHLEY 2000 White Female ACCPD 10/13/2019 4:57AM PUBLIC INTOXICATION Misdemeanor RECOGNIZANCE $1,000.00 2019-10130019
87472 10/19/2019 8:44:29 AM LEVY, DEXTER ANDRES 1993 Black/African American Male UGA PD 10/19/2019 7:14PM CRIMINAL TRESPASS - ENTERS ONTO PROPERTY FOR UNLAWFUL PURPOSE Misdemeanor POSTED BOND/BAIL $1,850.00 2019-10190050
101872 10/14/2019 5:24:48 PM LOGAN, TREVOR ALLEN 1997 White Male CCSO PROBATION VIOLATION FOR FINGERPRINTABLE CHARGE - SUPERIOR Felony $0.00 2019-10140014
3159045 10/19/2019 12:40:23 AM LOWE, KENNETH LANIER 1994 Black/African American Male CCSO FAILURE TO APPEAR FOR FINGERPRINTABLE CHARGE Misdemeanor $0.00 CR1813414
3166647 10/14/2019 9:09:36 PM LUKENS, JUSTIN TRAVIS 1984 White Male ACCPD 10/18/2019 9:31PM GIVING FALSE NAME/ADDRESS/BIRTHDATE TO LEO Misdemeanor POSTED BOND/BAIL $1,300.00 201910140140
3166647 10/14/2019 9:09:36 PM LUKENS, JUSTIN TRAVIS 1984 White Male ACCPD 10/18/2019 9:31PM DRIVING WHILE LICENSE SUSPENDED/REVOKED Misdemeanor POSTED BOND/BAIL $1,000.00 201910140140
3166647 10/14/2019 9:09:36 PM LUKENS, JUSTIN TRAVIS 1984 White Male ACCPD 10/18/2019 9:31PM SIGNALS REQUIRED ON TURNING/CHANGING LANES/STOPPING Misdemeanor POSTED BOND/BAIL $1,000.00 201910140140
50964 10/13/2019 12:54:51 PM MABRY, JAMAR KING 1988 Black/African American Male CCSO PROBATION VIOLATION FOR FINGERPRINTABLE CHARGE - SUPERIOR Felony CCSO $0.00 SU13CR0534R1 2019-10130001
3166691 10/17/2019 2:15:30 AM MAPP, KIMBERLY MICHELLE 1984 White Female CCSO 10/17/2019 2:57AM FAILURE TO APPEAR MUNICIPAL COURT Misdemeanor MUNCIPAL COURT STANDING ORDER $308.00 CR1905491
3166637 10/14/2019 12:23:57 AM MARTIN, CYNTHANIA DIANE 1964 White Female CCSO 10/14/2019 2:23AM THEFT BY SHOPLIFTING Misdemeanor POSTED BOND/BAIL $1,500.00 2019-10130026
3160760 10/14/2019 10:51:14 AM MARTIN, DEVANTE JOERELL 1999 Black/African American Male CCSO 10/18/2019 8:44AM PROBATION VIOLATION FOR FINGERPRINTABLE CHARGE - MUNICIPAL Misdemeanor MUNCT SENTENCED SERVED $0.00 CR-19-00205R1 2019-10140008
3163327 10/17/2019 1:05:27 PM MARTIN, KENBRIJAN SHAXIVER 2002 Black/African American Male CCSO VIOLATION OF BOND Felony SUPCT $0.00 SU19CR0502
87212 10/17/2019 11:01:14 PM MASSEY, CINDI LYNN 1981 White Female CCSO DRIVING W/O VALID LICENSE Misdemeanor $500.00 CR1905365
3166777 10/20/2019 1:15:48 AM MATHENY, JAKE RONALD 2001 White Male ACCPD POSSESS/DISPLAY/USE ANY FALSE/FRAUDULENT/ALTERED ID Misdemeanor $2,500.00 2019-10200004
3166777 10/20/2019 1:15:48 AM MATHENY, JAKE RONALD 2001 White Male ACCPD PUBLIC INTOXICATION Misdemeanor $500.00 2019-10200004
3166777 10/20/2019 1:15:48 AM MATHENY, JAKE RONALD 2001 White Male ACCPD OPEN CONTAINERS Misdemeanor $500.00 2019-10200004
3158731 10/16/2019 12:30:36 PM MATTHEWS, MARK RANDALL 1954 White Male CCSO 10/18/2019 1:39PM PROBATION VIOLATION FOR FINGERPRINTABLE CHARGE - STATE Misdemeanor STCRT SENTENCED SERVED $0.00 ST19CR0115R1ENS 2019-10160020
3166669 10/16/2019 2:01:08 PM MATTOX, WHITNEY CIERA DE'CHEL 1997 Black/African American Female ACCPD 10/17/2019 11:31AM BATTERY - FAMILY VIOLENCE - 1ST OFFENSE Misdemeanor RECOGNIZANCE $3,000.00 2019-10160098
3166669 10/16/2019 2:01:08 PM MATTOX, WHITNEY CIERA DE'CHEL 1997 Black/African American Female ACCPD 10/17/2019 11:31AM OBSTRUCTING/HINDERING PERSON MAKING EMERGENCY TELEPHONE CALL Misdemeanor RECOGNIZANCE $3,000.00 2019-10160098
3166669 10/16/2019 2:01:08 PM MATTOX, WHITNEY CIERA DE'CHEL 1997 Black/African American Female ACCPD 10/17/2019 11:31AM OBSTRUCTING/HINDERING PERSON MAKING EMERGENCY TELEPHONE CALL Misdemeanor RECOGNIZANCE $1,500.00 2019-10160098
3166669 10/16/2019 2:01:08 PM MATTOX, WHITNEY CIERA DE'CHEL 1997 Black/African American Female ACCPD 10/17/2019 11:31AM OBSTRUCTING/HINDERING PERSON MAKING EMERGENCY TELEPHONE CALL Misdemeanor RECOGNIZANCE $5,000.00 2019-10160098
3166755 10/19/2019 3:31:45 AM MCCORMICK, STEPHEN T 1996 White Male ACCPD 10/19/2019 2:15PM DISORDERLY CONDUCT Misdemeanor O R PER STCRT MUNCT MACT ORDER $1,000.00 2019-10190032
107489 10/17/2019 2:01:43 PM MCCUFF, SAMIY ALQUIS 1993 Black/African American Male CCSO 10/17/2019 4:43PM CRIMINAL TRESPASS - REMAINS ON PROPERTY AFTER NOTICE GIVEN Misdemeanor MAGCT POSTED BOND/BAIL $1,850.00 MC01CRCR195489 2019-10170027
66565 10/18/2019 6:25:54 PM MEDINA-MATEO, PEDRO 1988 White Male CCSO DRIVING W/O VALID LICENSE Misdemeanor MUNCT $500.00 CR1910245
3158840 10/16/2019 6:36:41 PM MIKESH, JOSEPH GABRIEL 1989 White Male CCSO 10/18/2019 2:31PM PROBATION VIOLATION FOR FINGERPRINTABLE CHARGE - STATE Misdemeanor CCSO SENTENCED SERVED $0.00 ST18CR2129R1 2019-10160039
3166254 10/19/2019 12:43:15 AM MITCHELL, DAVION 2002 Black/African American Male ACCPD 10/19/2019 10:28PM CRIMINAL TRESPASS - DAMAGE TO PROPERTY Misdemeanor POSTED BOND/BAIL $2,000.00 2019-10180268
27545 10/16/2019 3:49:58 PM NICHOLS, SHAWNA SUE 1980 White Female CCSO PROBATION VIOLATION Misdemeanor $0.00 CR1900516R1
3166704 10/17/2019 6:39:53 PM OWENS, SAMUEL GRIFFETH 1977 White Male CCSO 10/17/2019 10:29PM MUNICIPAL COURT BENCH WARRANT Misdemeanor MUNCT POSTED BOND/BAIL $349.00 CR1903518 2019-10170034
22218 10/17/2019 4:46:37 PM PASCHAL, GARLAND ALAN 1973 Black/African American Male CCSO FAILURE TO APPEAR FOR FINGERPRINTABLE CHARGE Misdemeanor STCRT $0.00 ST19CR0246-ENS 2019-10170028
3166711 10/17/2019 9:38:45 PM PEEK, DIONTE MARICE 2001 Black/African American Male ACCPD 10/18/2019 4:47PM POSSESSION OF COCAINE W/ INTENT TO DISTRIBUTE Felony O R PER STCRT MUNCT MACT ORDER $4,000.00 2019-10170222
3166711 10/17/2019 9:38:45 PM PEEK, DIONTE MARICE 2001 Black/African American Male ACCPD 10/18/2019 4:47PM DRIVING W/O VALID LICENSE Misdemeanor O R PER STCRT MUNCT MACT ORDER $500.00 2019-10170222
3166711 10/17/2019 9:38:45 PM PEEK, DIONTE MARICE 2001 Black/African American Male ACCPD 10/18/2019 4:47PM KNOWINGLY DRIVING MV ON SUSPENDED/CANCELED/REVOKED REGISTRATION Misdemeanor O R PER STCRT MUNCT MACT ORDER $500.00 2019-10170222
3166709 10/17/2019 9:22:11 PM PERKINS, CORDIAS JEVAGHN 2001 Black/African American Male ACCPD 10/18/2019 5:21PM POSSESSION OF COCAINE W/ INTENT TO DISTRIBUTE Felony SUPCT O R PER STCRT MUNCT MACT ORDER $5,000.00 2019-10170222
75322 10/19/2019 11:33:43 PM PINEIRO, ERIC ANTHONY 1990 White Male ACCPD PUBLIC INTOXICATION Misdemeanor $500.00 2019-10190226
75322 10/19/2019 11:33:43 PM PINEIRO, ERIC ANTHONY 1990 White Male ACCPD URINATE/DEFECATE IN PUBLIC Misdemeanor $250.00 2019-10190226
75322 10/19/2019 11:33:43 PM PINEIRO, ERIC ANTHONY 1990 White Male ACCPD PUBLIC INDECENCY Misdemeanor $1,000.00 2019-10190226
3163350 10/14/2019 10:00:03 PM POPE, DEXTER LEONARD 1992 Black/African American Male CCSO DUI - DRUGS - LESS SAFE Misdemeanor STCRT $0.00 ST19CR0824CEA
3163350 10/14/2019 10:00:03 PM POPE, DEXTER LEONARD 1992 Black/African American Male CCSO OTHER AGENCY HOLD - OGLETHORPE CO SO Felony $0.00 180R86W
3166620 10/13/2019 2:41:22 AM POWELL, LAFRANTE 1998 Black/African American Male ACCPD 10/13/2019 3:59AM DISORDERLY CONDUCT Misdemeanor O R PER STCRT MUNCT MACT ORDER $1,000.00 2019-10130037
3166686 10/17/2019 12:36:34 AM RANDLE, ANTWAN DEVANTE 1993 Black/African American Male ACCPD 10/17/2019 4:03PM OTHER AGENCY HOLD - HALL CO SO Felony RELEASED TO OTHER AGENCY $250.00 17SR7187D
3154510 10/16/2019 4:19:05 PM REDD, EMERSON 1961 Black/African American Male CCSO SEXUAL BATTERY Misdemeanor $0.00 SU18CR0509L
3154510 10/16/2019 4:19:05 PM REDD, EMERSON 1961 Black/African American Male CCSO RAPE Felony $0.00 SU18CR0509L
3154510 10/16/2019 4:19:05 PM REDD, EMERSON 1961 Black/African American Male CCSO CRIMINAL ATTEMPT Felony $0.00 SU18CR0509L
3154510 10/16/2019 4:19:05 PM REDD, EMERSON 1961 Black/African American Male CCSO SEXUAL BATTERY Misdemeanor $0.00 SU18CR0509L
3166693 10/17/2019 2:59:44 AM RIORDAN, MAEVE M 2001 White Female ACCPD 10/17/2019 4:26AM PUBLIC INTOXICATION Misdemeanor O R PER STCRT MUNCT MACT ORDER $1,000.00 2019-10170017
3166693 10/17/2019 2:59:44 AM RIORDAN, MAEVE M 2001 White Female ACCPD 10/17/2019 4:26AM POSSESSING ANY ALCOHOLIC BEVERAGE UNDER 21 YOA Misdemeanor O R PER STCRT MUNCT MACT ORDER $1,000.00 2019-10170017
3166693 10/17/2019 2:59:44 AM RIORDAN, MAEVE M 2001 White Female ACCPD 10/17/2019 4:26AM POSSESS/DISPLAY/USE ANY FALSE/FRAUDULENT/ALTERED ID Misdemeanor O R PER STCRT MUNCT MACT ORDER $1,000.00 2019-10170017
3166693 10/17/2019 2:59:44 AM RIORDAN, MAEVE M 2001 White Female ACCPD 10/17/2019 4:26AM OBSTRUCTION OF LEO Misdemeanor O R PER STCRT MUNCT MACT ORDER $1,000.00 2019-10170017
3166753 10/19/2019 3:10:27 AM RIVERA, ASHLEY MARIE 1988 White Female ACCPD 10/19/2019 5:04AM DRIVING WHILE LICENSE SUSPENDED/REVOKED Misdemeanor O R PER STCRT MUNCT MACT ORDER $1,000.00 2019-10190030
3161436 10/16/2019 3:17:31 PM RODRIGUEZ, KAYLIE MAKENNA 1992 White Female CCSO 10/18/2019 1:03PM PROBATION VIOLATION FOR FINGERPRINTABLE CHARGE - STATE Misdemeanor STCRT SENTENCED SERVED $0.00 ST19CR0458R1ENS 2019-10160029
3166655 10/15/2019 2:29:41 PM ROJAS-TAFOLLA, MELVIN A 2002 White Male ACCPD 10/15/2019 6:16PM CRIMINAL TRESPASS - DAMAGE TO PROPERTY Misdemeanor MUNCIPAL COURT STANDING ORDER $2,000.00 2019-10150084
3166655 10/15/2019 2:29:41 PM ROJAS-TAFOLLA, MELVIN A 2002 White Male ACCPD 10/15/2019 6:16PM GIVING FALSE NAME/ADDRESS/BIRTHDATE TO LEO Misdemeanor MUNCIPAL COURT STANDING ORDER $2,000.00 2019-10150084
3166655 10/15/2019 2:29:41 PM ROJAS-TAFOLLA, MELVIN A 2002 White Male ACCPD 10/15/2019 6:16PM GIVING FALSE NAME/ADDRESS/BIRTHDATE TO LEO Misdemeanor MUNCIPAL COURT STANDING ORDER $1,000.00 2019-10150084
3166680 10/16/2019 8:53:59 PM RYAN, GRACE CHANDLER KENNEDY 1999 White Female ACCPD 10/17/2019 12:18AM MUNICIPAL COURT BENCH WARRANT Misdemeanor CCSO POSTED BOND/BAIL $410.00 CR1804395
3166680 10/16/2019 8:53:59 PM RYAN, GRACE CHANDLER KENNEDY 1999 White Female ACCPD 10/17/2019 12:18AM DRIVING WHILE LICENSE SUSPENDED/REVOKED Misdemeanor POSTED BOND/BAIL $1,000.00 2019-10160205
64600 10/15/2019 4:05:34 PM SANFORD, WILLIE MAURICE 1967 Black/African American Male CCSO 10/18/2019 1:09PM PROBATION VIOLATION FOR FINGERPRINTABLE CHARGE - STATE Misdemeanor STCRT SENTENCED SERVED $0.00 ST17CR0114R4CEA 2019-10150027
3166735 10/18/2019 11:37:36 PM SARGENT, ANNABELLE WYONA 2001 White Female CCSO 10/19/2019 5:36PM FINANCIAL TRANSACTION CARD FRAUD Felony O R PER STCRT MUNCT MACT ORDER $1,000.00 MC01CRCR195699
3166735 10/18/2019 11:37:36 PM SARGENT, ANNABELLE WYONA 2001 White Female CCSO 10/19/2019 5:36PM FINANCIAL TRANSACTION CARD FRAUD Felony O R PER STCRT MUNCT MACT ORDER $1,000.00 MC01CRCR195700
3166735 10/18/2019 11:37:36 PM SARGENT, ANNABELLE WYONA 2001 White Female CCSO 10/19/2019 5:36PM FINANCIAL TRANSACTION CARD FRAUD Felony O R PER STCRT MUNCT MACT ORDER $1,000.00 MC01CRCR195701
3166735 10/18/2019 11:37:36 PM SARGENT, ANNABELLE WYONA 2001 White Female CCSO 10/19/2019 5:36PM FINANCIAL TRANSACTION CARD FRAUD Felony O R PER STCRT MUNCT MACT ORDER $1,000.00 MC01CRCRC195702
3166735 10/18/2019 11:37:36 PM SARGENT, ANNABELLE WYONA 2001 White Female CCSO 10/19/2019 5:36PM FORGERY - 4TH DEGREE Misdemeanor O R PER STCRT MUNCT MACT ORDER $500.00 MC01CRCR195703
3166735 10/18/2019 11:37:36 PM SARGENT, ANNABELLE WYONA 2001 White Female CCSO 10/19/2019 5:36PM FORGERY - 4TH DEGREE Misdemeanor O R PER STCRT MUNCT MACT ORDER $500.00 MC01CRCR195704
3166735 10/18/2019 11:37:36 PM SARGENT, ANNABELLE WYONA 2001 White Female CCSO 10/19/2019 5:36PM FORGERY - 4TH DEGREE Misdemeanor O R PER STCRT MUNCT MACT ORDER $500.00 MC01CRCR195705
3166735 10/18/2019 11:37:36 PM SARGENT, ANNABELLE WYONA 2001 White Female CCSO 10/19/2019 5:36PM FORGERY - 4TH DEGREE Misdemeanor O R PER STCRT MUNCT MACT ORDER $500.00 MC01CRCR195706
100731 10/15/2019 3:06:12 PM SAWYER, JACKSON BROOKS 1998 White Male CCSO 10/15/2019 4:35PM FURNISHING ALCOHOLIC BEVERAGE TO PERSON UNDER 21 YOA Misdemeanor CCSO POSTED BOND/BAIL $500.00 CR1913587
3166747 10/19/2019 2:27:51 AM SCHORR, SPENCER GEORGE 1969 White Male ACCPD 10/19/2019 4:55AM PUBLIC INTOXICATION Misdemeanor O R PER STCRT MUNCT MACT ORDER $1,000.00 2019-10190025
3166747 10/19/2019 2:27:51 AM SCHORR, SPENCER GEORGE 1969 White Male ACCPD 10/19/2019 4:55AM DISORDERLY CONDUCT Misdemeanor O R PER STCRT MUNCT MACT ORDER $1,000.00 2019-10190025
54319 10/17/2019 11:51:14 AM SEWELL, FRANK LEE 1987 Black/African American Male CCSO RETURNED FOR COURT Felony $0.00 SU19CR0614-L
65112 10/16/2019 3:31:48 PM SIMMONS, JEROME ASHAWN 1979 Black/African American Male CCSO PROBATION VIOLATION FOR FINGERPRINTABLE CHARGE - SUPERIOR Felony CCSO $0.00 SU18CR0924R2 2019-10160030
65112 10/16/2019 3:31:48 PM SIMMONS, JEROME ASHAWN 1979 Black/African American Male CCSO PROBATION VIOLATION FOR FINGERPRINTABLE CHARGE - SUPERIOR Felony CCSO $0.00 SU09CR1025R7 2019-10160030
82954 10/15/2019 4:28:52 PM SIMS, DEMONTAVIS JERMAINE 1996 Black/African American Male CCSO 10/18/2019 12:34PM PROBATION VIOLATION FOR FINGERPRINTABLE CHARGE - STATE Misdemeanor CCSO SENTENCED SERVED $0.00 ST18CR2496R1 2019-10150028
72224 10/19/2019 3:31:19 AM SMITH, BRENAE TOTENIA 1993 Black/African American Female CCSO 10/19/2019 3:42PM BATTERY - FV Misdemeanor O R PER STCRT MUNCT MACT ORDER $2,500.00 MC01CRCR195711
72224 10/19/2019 3:31:19 AM SMITH, BRENAE TOTENIA 1993 Black/African American Female CCSO 10/19/2019 3:42PM CRUELTY TO CHILDREN - 3RD DEGREE - FV Misdemeanor O R PER STCRT MUNCT MACT ORDER $5,000.00 MC01CRCR195713
72224 10/19/2019 3:31:19 AM SMITH, BRENAE TOTENIA 1993 Black/African American Female CCSO 10/19/2019 3:42PM CRUELTY TO CHILDREN - 3RD DEGREE - FV Misdemeanor O R PER STCRT MUNCT MACT ORDER $5,000.00 MC01CRCR195712
72224 10/19/2019 3:31:19 AM SMITH, BRENAE TOTENIA 1993 Black/African American Female CCSO 10/19/2019 3:42PM BATTERY - FV Misdemeanor O R PER STCRT MUNCT MACT ORDER $2,000.00 MC01CRCR195711
72224 10/19/2019 3:31:19 AM SMITH, BRENAE TOTENIA 1993 Black/African American Female CCSO 10/19/2019 3:42PM CRUELTY TO CHILDREN - 3RD DEGREE - FV Misdemeanor O R PER STCRT MUNCT MACT ORDER $1,000.00 MC01CRCR195713
72224 10/19/2019 3:31:19 AM SMITH, BRENAE TOTENIA 1993 Black/African American Female CCSO 10/19/2019 3:42PM CRUELTY TO CHILDREN - 3RD DEGREE - FV Misdemeanor O R PER STCRT MUNCT MACT ORDER $1,000.00 MC01CRCR195712
75273 10/15/2019 10:03:36 AM SMITH, BRITTANY BERNICE 1988 Black/African American Female CCSO PROBATION VIOLATION FOR FINGERPRINTABLE CHARGE - STATE Misdemeanor STCRT $0.00 ST19CR0871R11CEA 2019-10150014
3155098 10/17/2019 12:10:59 PM SOLIS-MACIAS, ROSALINO 1979 White Male CCSO RETURNED FOR COURT Felony $0.00 SU18CR0511-S
3166673 10/16/2019 5:58:03 PM SOLOMON, ZACHARY FORREST 1985 White Male CCSO AGGRAVATED BATTERY Felony MAGCT $0.00 MC01CRCR195691 2019-10160038
3166673 10/16/2019 5:58:03 PM SOLOMON, ZACHARY FORREST 1985 White Male CCSO RAPE Felony MAGCT $0.00 MC01CRCR195688 2019-10160038
3166673 10/16/2019 5:58:03 PM SOLOMON, ZACHARY FORREST 1985 White Male CCSO AGGRAVATED ASSAULT Felony MAGCT $0.00 MC01CRCR195690 2019-10160038
3166673 10/16/2019 5:58:03 PM SOLOMON, ZACHARY FORREST 1985 White Male CCSO AGGRAVATED SODOMY Felony MAGCT $0.00 MC01CRCR195689 2019-10160038
3166673 10/16/2019 5:58:03 PM SOLOMON, ZACHARY FORREST 1985 White Male CCSO BATTERY Misdemeanor MAGCT $2,500.00 MC01CRCR195692 2019-10160038
3166740 10/19/2019 12:57:48 AM STERNELD, ERIC QUAN 1998 White Male ACCPD 10/19/2019 4:44AM POSSESSING ANY ALCOHOLIC BEVERAGE UNDER 21 YOA Misdemeanor O R PER STCRT MUNCT MACT ORDER $1,000.00 2019-10180280
3166740 10/19/2019 12:57:48 AM STERNELD, ERIC QUAN 1998 White Male ACCPD 10/19/2019 4:44AM PEDESTRIAN UNDER THE INFLUENCE OF ALCOHOL/DRUG Misdemeanor O R PER STCRT MUNCT MACT ORDER $1,000.00 2019-10180280
3166740 10/19/2019 12:57:48 AM STERNELD, ERIC QUAN 1998 White Male ACCPD 10/19/2019 4:44AM POSSESS/DISPLAY/USE ANY FALSE/FRAUDULENT/ALTERED ID Misdemeanor O R PER STCRT MUNCT MACT ORDER $1,000.00 2019-10180280
3166626 10/13/2019 4:27:27 AM STOVALL, TARYCK LORENZ 1992 Black/African American Male GSP 10/13/2019 5:01AM DUI - ALCOHOL - LESS SAFE Misdemeanor O R PER STCRT MUNCT MACT ORDER $1,000.00 034301H
3166626 10/13/2019 4:27:27 AM STOVALL, TARYCK LORENZ 1992 Black/African American Male GSP 10/13/2019 5:01AM POSSESSION OF OPEN CONTAINER OF ALCOHOLIC BEVERAGE IN PASSENGER AREA Misdemeanor O R PER STCRT MUNCT MACT ORDER $1,000.00 034302H
3166626 10/13/2019 4:27:27 AM STOVALL, TARYCK LORENZ 1992 Black/African American Male GSP 10/13/2019 5:01AM POSSESSION OF MARIJUANA LESS THAN 1 OZ Misdemeanor O R PER STCRT MUNCT MACT ORDER $1,000.00 034303H
33414 10/16/2019 10:23:00 AM STOWERS, EDWARD LEE 1968 Black/African American Male ACCPD DRIVING WHILE LICENSE SUSPENDED/REVOKED Misdemeanor $1,500.00 2019-10160027
33414 10/16/2019 10:23:00 AM STOWERS, EDWARD LEE 1968 Black/African American Male ACCPD FAILURE TO MAINTAIN LANE/IMPROPER DRIVING ON ROAD Misdemeanor $500.00 2019-10160027
33414 10/16/2019 10:23:00 AM STOWERS, EDWARD LEE 1968 Black/African American Male ACCPD TOO FAST FOR CONDITIONS Misdemeanor $500.00 2019-10160027
33414 10/16/2019 10:23:00 AM STOWERS, EDWARD LEE 1968 Black/African American Male ACCPD HIT AND RUN RESULTING IN SERIOUS INJURY/DEATH Felony $0.00 2019-10160027
33414 10/16/2019 10:23:00 AM STOWERS, EDWARD LEE 1968 Black/African American Male ACCPD HOMICIDE BY VEHICLE - LEAVING THE SCENE Felony $0.00 2019-10160027
76286 10/17/2019 10:24:18 PM STRONG, QUENTIN XAVIER 1982 Black/African American Male ACCPD 10/18/2019 1:07AM DRIVING WHILE LICENSE SUSPENDED/REVOKED Misdemeanor POSTED BOND/BAIL $1,500.00 2019-10170243
76286 10/17/2019 10:24:18 PM STRONG, QUENTIN XAVIER 1982 Black/African American Male ACCPD 10/18/2019 1:07AM POSSESSION OF OPEN CONTAINER OF ALCOHOLIC BEVERAGE IN PASSENGER AREA Misdemeanor POSTED BOND/BAIL $250.00 2019-10170243
3152597 10/17/2019 12:54:05 AM SUMLAR, CHRISTOPHER M 1995 Black/African American Male CCSO CRIMINAL TRESPASS - DAMAGE TO PROPERTY - FV Misdemeanor $1,500.00 MC01CRCR195697
3152597 10/17/2019 12:54:05 AM SUMLAR, CHRISTOPHER M 1995 Black/African American Male CCSO THEFT BY TAKING - ALL OTHER - FV Misdemeanor $0.00 MC01CRCR195698
3152597 10/17/2019 12:54:05 AM SUMLAR, CHRISTOPHER M 1995 Black/African American Male CCSO SIMPLE BATTERY - FAMILY VIOLENCE - FV Misdemeanor $0.00 MC01CRCR195696
993260 10/15/2019 3:23:05 PM SUTHERLAND, SHERRY ELAINE 1967 White Female ACCPD 10/15/2019 5:23PM PUBLIC DRUNKENNESS Misdemeanor POSTED BOND/BAIL $1,000.00
993260 10/15/2019 3:23:05 PM SUTHERLAND, SHERRY ELAINE 1967 White Female ACCPD 10/15/2019 5:23PM SIMPLE ASSAULT Misdemeanor POSTED BOND/BAIL $1,500.00
993260 10/15/2019 3:23:05 PM SUTHERLAND, SHERRY ELAINE 1967 White Female ACCPD 10/15/2019 5:23PM OBSTRUCTION OF EMS Felony POSTED BOND/BAIL $21,100.00
993260 10/15/2019 3:23:05 PM SUTHERLAND, SHERRY ELAINE 1967 White Female ACCPD 10/15/2019 5:23PM PUBLIC DRUNKENNESS Misdemeanor POSTED BOND/BAIL $21,100.00
993260 10/15/2019 3:23:05 PM SUTHERLAND, SHERRY ELAINE 1967 White Female ACCPD 10/15/2019 5:23PM SIMPLE ASSAULT Misdemeanor POSTED BOND/BAIL $21,100.00
993260 10/15/2019 3:23:05 PM SUTHERLAND, SHERRY ELAINE 1967 White Female ACCPD 10/15/2019 5:23PM OBSTRUCTION OF EMS Felony POSTED BOND/BAIL $21,100.00
993260 10/15/2019 3:23:05 PM SUTHERLAND, SHERRY ELAINE 1967 White Female ACCPD 10/15/2019 5:23PM DISORDERLY CONDUCT Misdemeanor POSTED BOND/BAIL $21,100.00
3166617 10/13/2019 2:26:42 AM TALLEY, SPENCER CROMARTIE 2000 White Male ACCPD 10/13/2019 4:05AM DISORDERLY CONDUCT Misdemeanor O R PER STCRT MUNCT MACT ORDER $1,000.00 2019-10130022
3166617 10/13/2019 2:26:42 AM TALLEY, SPENCER CROMARTIE 2000 White Male ACCPD 10/13/2019 4:05AM POSSESSING ANY ALCOHOLIC BEVERAGE UNDER 21 YOA Misdemeanor O R PER STCRT MUNCT MACT ORDER $1,000.00 2019-10130022
3166617 10/13/2019 2:26:42 AM TALLEY, SPENCER CROMARTIE 2000 White Male ACCPD 10/13/2019 4:05AM POSSESS/DISPLAY/USE IDENTIFICATION OF ANOTHER W/O CONSENT - 1ST OFFENSE Misdemeanor O R PER STCRT MUNCT MACT ORDER $1,000.00 2019-10130022
79736 10/13/2019 9:57:35 PM TATE, MARQUET STANVIOS 1995 Black/African American Male CCSO PROBATION VIOLATION FOR FINGERPRINTABLE CHARGE - SUPERIOR Felony $0.00 SU16CR0359R1L
79736 10/13/2019 9:57:35 PM TATE, MARQUET STANVIOS 1995 Black/African American Male CCSO PROBATION VIOLATION FOR FINGERPRINTABLE CHARGE - SUPERIOR Felony $0.00 SU12CR0951R5L
79736 10/13/2019 9:57:35 PM TATE, MARQUET STANVIOS 1995 Black/African American Male CCSO PROBATION VIOLATION FOR FINGERPRINTABLE CHARGE - SUPERIOR Felony $0.00 SU12CR0951R5L
69592 10/17/2019 5:35:07 PM THOMAS, OCTAVIOUS JOVAN 1990 Black/African American Male CCSO 10/17/2019 7:57PM THEFT BY SHOPLIFTING Felony MAGCT POSTED BOND/BAIL $5,700.00 MC01CRCR195214 2019-10170031
7844 10/18/2019 9:12:22 PM THURMOND, DENNIS JOE 1960 Black/African American Male CCSO MUNICIPAL COURT BENCH WARRANT Misdemeanor CCSO $410.00 CR1904282 2019-10180039
7844 10/18/2019 9:12:22 PM THURMOND, DENNIS JOE 1960 Black/African American Male CCSO PROBATION VIOLATION FOR FINGERPRINTABLE CHARGE - SUPERIOR Felony CCSO $0.00 SU16CR0826R1N 2019-10180039
3166745 10/19/2019 2:10:21 AM TRAGER, SPENCER S 2001 White Male ACCPD 10/19/2019 4:27AM PUBLIC INTOXICATION Misdemeanor O R PER STCRT MUNCT MACT ORDER $1,000.00 2019-10190013
3166745 10/19/2019 2:10:21 AM TRAGER, SPENCER S 2001 White Male ACCPD 10/19/2019 4:27AM POSSESSING ANY ALCOHOLIC BEVERAGE UNDER 21 YOA Misdemeanor O R PER STCRT MUNCT MACT ORDER $1,000.00 2019-10190013
12366 10/14/2019 8:53:09 AM TURNER, KAREY PAUL 1973 White Male ACCPD 10/15/2019 11:33AM CRIMINAL TRESPASS - DAMAGE TO PROPERTY - FV Misdemeanor POSTED BOND/BAIL $1,300.00 2019-10140024
12366 10/14/2019 8:53:09 AM TURNER, KAREY PAUL 1973 White Male ACCPD 10/15/2019 11:33AM SIMPLE ASSAULT - FAMILY VIOLENCE Misdemeanor POSTED BOND/BAIL $1,000.00 2019-10140024
3166742 10/19/2019 1:01:31 AM TURNER, KRISTEN ANNE 1988 White Female ACCPD 10/19/2019 1:52PM DUI - ALCOHOL - LESS SAFE Misdemeanor O R PER STCRT MUNCT MACT ORDER $1,000.00 2019-10180277
3158632 10/19/2019 7:11:20 PM VANHEIDRICH, HALEY NICOLE 1992 Black/African American Female ACCPD 10/19/2019 11:27PM DISORDERLY CONDUCT Misdemeanor POSTED BOND/BAIL $500.00 2019-10190166
3157780 10/15/2019 4:51:11 PM VEASLEY, DOCK ANTHONY 1973 Black/African American Male CCSO PROBATION VIOLATION FOR FINGERPRINTABLE CHARGE - STATE Misdemeanor $0.00 2019-10150029
3157780 10/15/2019 4:51:11 PM VEASLEY, DOCK ANTHONY 1973 Black/African American Male CCSO OTHER AGENCY HOLD - GREENE CO SO Felony CCSO $0.00 19CR028
3166688 10/17/2019 1:29:46 AM WALKER, JACOB ROBERT 2000 White Male UGA PD 10/17/2019 2:47AM POSSESSING ANY ALCOHOLIC BEVERAGE UNDER 21 YOA Misdemeanor O R PER STCRT MUNCT MACT ORDER $1,000.00 2019-10170001
3166688 10/17/2019 1:29:46 AM WALKER, JACOB ROBERT 2000 White Male UGA PD 10/17/2019 2:47AM POSSESS/DISPLAY/USE IDENTIFICATION OF ANOTHER W/O CONSENT - 1ST OFFENSE Misdemeanor O R PER STCRT MUNCT MACT ORDER $1,000.00 2019-10170001
3166688 10/17/2019 1:29:46 AM WALKER, JACOB ROBERT 2000 White Male UGA PD 10/17/2019 2:47AM THEFT BY TAKING - ALL OTHER Misdemeanor O R PER STCRT MUNCT MACT ORDER $1,000.00 2019-10170001
26848 10/16/2019 8:22:12 PM WALKER, KEVIN SHANE 1975 White Male CCSO PROBATION VIOLATION FOR FINGERPRINTABLE CHARGE - SUPERIOR Felony CCSO $0.00 SU17CR0850R1
3165664 10/18/2019 2:19:47 AM WALTON, ANGLOW 2002 Black/African American Male ACCPD 10/19/2019 9:38PM CRIMINAL ATTEMPT Felony POSTED BOND/BAIL $1,350.00 MC01CRCR195068
3165664 10/18/2019 2:19:47 AM WALTON, ANGLOW 2002 Black/African American Male ACCPD 10/19/2019 9:38PM HEADLIGHTS Misdemeanor POSTED BOND/BAIL $500.00 2019-10180012
3165664 10/18/2019 2:19:47 AM WALTON, ANGLOW 2002 Black/African American Male ACCPD 10/19/2019 9:38PM DRIVING W/O VALID LICENSE Misdemeanor POSTED BOND/BAIL $500.00 2019-10180012
3165664 10/18/2019 2:19:47 AM WALTON, ANGLOW 2002 Black/African American Male ACCPD 10/19/2019 9:38PM CRIMINAL TRESPASS - ENTERS ONTO PROPERTY FOR UNLAWFUL PURPOSE Misdemeanor POSTED BOND/BAIL $500.00 MC01CRCR195069
90313 10/15/2019 10:30:08 PM WASHINGTON, JAMES LEE 1991 Black/African American Male ACCPD CRIMINAL TRESPASS - ENTERS ONTO PROPERTY AFTER NOTICE GIVEN Misdemeanor $1,500.00 2019-10150213
15578 10/13/2019 10:08:02 AM WATKINS, CHADRETT CHAN 1978 Black/African American Male GSP POSSESSION OF MARIJUANA MORE THAN 1 OZ Felony $5,000.00 030893
15578 10/13/2019 10:08:02 AM WATKINS, CHADRETT CHAN 1978 Black/African American Male GSP POSSESSION AND USE OF DRUG RELATED OBJECTS Misdemeanor $1,000.00 030894
15578 10/13/2019 10:08:02 AM WATKINS, CHADRETT CHAN 1978 Black/African American Male GSP DRIVING WHILE LICENSE SUSPENDED/REVOKED Misdemeanor $1,000.00 030892
15578 10/13/2019 10:08:02 AM WATKINS, CHADRETT CHAN 1978 Black/African American Male GSP PAROLE HOLD Felony $0.00 381197
90085 10/14/2019 8:33:36 PM WATKINS, RANBRICA NICOLA 1998 Black/African American Female CCSO PROBATION VIOLATION FOR FINGERPRINTABLE CHARGE - STATE - ST19CR0061R2ENS Misdemeanor STCRT $0.00 ST19CR0061R2ENS
38407 10/19/2019 10:42:42 AM WHALEY, DEECE MARIE 1981 White Female CCSO PROBATION VIOLATION FOR FINGERPRINTABLE CHARGE - SUPERIOR Felony SUPCT $0.00 SU17CR0682R1 2019-10190006
3166750 10/19/2019 2:47:14 AM WHITE, CARTER MCKINSTRY 2000 White Male ACCPD 10/19/2019 5:14AM POSSESSION AND USE OF DRUG RELATED OBJECTS Misdemeanor O R PER STCRT MUNCT MACT ORDER $1,000.00 2019-10190022
3166750 10/19/2019 2:47:14 AM WHITE, CARTER MCKINSTRY 2000 White Male ACCPD 10/19/2019 5:14AM POSSESSING ANY ALCOHOLIC BEVERAGE UNDER 21 YOA Misdemeanor O R PER STCRT MUNCT MACT ORDER $1,000.00 2019-10190022
3166750 10/19/2019 2:47:14 AM WHITE, CARTER MCKINSTRY 2000 White Male ACCPD 10/19/2019 5:14AM PUBLIC INTOXICATION Misdemeanor O R PER STCRT MUNCT MACT ORDER $1,000.00 2019-10190022
3166750 10/19/2019 2:47:14 AM WHITE, CARTER MCKINSTRY 2000 White Male ACCPD 10/19/2019 5:14AM POSSESS/DISPLAY/USE ANY FALSE/FRAUDULENT/ALTERED ID Misdemeanor O R PER STCRT MUNCT MACT ORDER $1,000.00 2019-10190022
3166650 10/15/2019 12:28:03 AM WHITTEMBURY, MICHAEL R 1998 White Male ACCPD 10/15/2019 2:26AM DRIVING W/O VALID LICENSE Misdemeanor O R PER STCRT MUNCT MACT ORDER $1,000.00 2019-10140206
105518 10/13/2019 2:44:21 AM WICKS, DWIGHT DEWAYNE 1995 Black/African American Male ACCPD 10/13/2019 9:07AM DISORDERLY CONDUCT Misdemeanor POSTED BOND/BAIL $500.00 2019-10130037
9197 10/20/2019 1:19:17 AM WILLIAMS, FREDDIE DONNELL 1963 Black/African American Male GSP DUI - ALCOHOL - LESS SAFE Misdemeanor $1,500.00 E03357290
3166767 10/19/2019 8:55:49 PM WILLIAMS, JONATHAN PAUL 1984 White Male ACCPD ONE WAY ROADWAY Misdemeanor $500.00 2019-10190187
3166767 10/19/2019 8:55:49 PM WILLIAMS, JONATHAN PAUL 1984 White Male ACCPD DRIVING WHILE LICENSE SUSPENDED/REVOKED Misdemeanor $1,500.00 2019-10190187
3166767 10/19/2019 8:55:49 PM WILLIAMS, JONATHAN PAUL 1984 White Male ACCPD PAROLE HOLD Felony $0.00
49765 10/19/2019 1:46:55 AM WILLOUGHBY, JAMES 1961 Black/African American Male ACCPD 10/19/2019 2:25PM BATTERY Misdemeanor O R PER STCRT MUNCT MACT ORDER $2,000.00 2019-10190019
56407 10/13/2019 4:49:22 PM WINGFIELD, JULISA LASHAY 1989 Black/African American Female CCSO 10/17/2019 1:20AM THEFT BY SHOPLIFTING Misdemeanor MUNCT POSTED BOND/BAIL $1,500.00 CR1913013 2019-10130018
56407 10/13/2019 4:49:22 PM WINGFIELD, JULISA LASHAY 1989 Black/African American Female CCSO 10/17/2019 1:20AM THEFT BY SHOPLIFTING Misdemeanor MUNCT POSTED BOND/BAIL $1,500.00 CR1913015 2019-10130018
56407 10/13/2019 4:49:22 PM WINGFIELD, JULISA LASHAY 1989 Black/African American Female CCSO 10/17/2019 1:20AM THEFT BY SHOPLIFTING Misdemeanor MUNCT POSTED BOND/BAIL $1,500.00 CR1913016 2019-10130018
56407 10/13/2019 4:49:22 PM WINGFIELD, JULISA LASHAY 1989 Black/African American Female CCSO 10/17/2019 1:20AM THEFT BY SHOPLIFTING Misdemeanor MUNCT POSTED BOND/BAIL $1,500.00 CR1913017 2019-10130018
56407 10/13/2019 4:49:22 PM WINGFIELD, JULISA LASHAY 1989 Black/African American Female CCSO 10/17/2019 1:20AM FAILURE TO APPEAR FOR FINGERPRINTABLE CHARGE Misdemeanor MUNCT POSTED BOND/BAIL $5,000.00 CR1908697 2019-10130018
56407 10/13/2019 4:49:22 PM WINGFIELD, JULISA LASHAY 1989 Black/African American Female CCSO 10/17/2019 1:20AM FAILURE TO APPEAR FOR FINGERPRINTABLE CHARGE Misdemeanor MUNCT POSTED BOND/BAIL $5,000.00 CR1908695 2019-10130018
101647 10/18/2019 9:57:45 AM WIRTH, LINDA DAGMAR 1976 White Female ACCPD 10/19/2019 1:25PM VIOLATION OF FAMILY VIOLENCE ORDER Misdemeanor POSTED BOND/BAIL $1,300.00 2019-10180061
3156721 10/16/2019 12:48:43 PM WOOTEN, GEORGE LEE 1966 Black/African American Male CCSO 10/18/2019 6:51PM PROBATION VIOLATION FOR FINGERPRINTABLE CHARGE - STATE Misdemeanor CCSO SENTENCED SERVED $0.00 ST18CR1424R4CEA 2019-10160023
3166678 10/16/2019 8:45:02 PM WREASE, SHARENA RACHEYLLE 1994 Black/African American Female CCSO 10/16/2019 10:25PM MUNICIPAL COURT CONTMEPT WARRANT Misdemeanor CCSO POSTED BOND/BAIL $210.00 CR1908356
3166636 10/13/2019 11:09:13 PM WRIGHT, CRAIG ANTHONY 1972 Black/African American Male ACCPD 10/14/2019 11:22AM DISORDERLY CONDUCT Misdemeanor RECOGNIZANCE $1,000.00 2019-10130249
3166624 10/13/2019 3:17:44 AM WRIGHT, JAMARI TRE 2002 Black/African American Male ACCPD 10/13/2019 12:25PM DRIVING W/O VALID LICENSE Misdemeanor POSTED BOND/BAIL $500.00 2019-10130041
3166721 10/18/2019 2:53:55 AM YOUNG, TYLER JORDAN 1997 White Male ACCPD 10/18/2019 5:13AM PUBLIC INTOXICATION Misdemeanor O R PER STCRT MUNCT MACT ORDER $1,000.00 2019-10180014
3166721 10/18/2019 2:53:55 AM YOUNG, TYLER JORDAN 1997 White Male ACCPD 10/18/2019 5:13AM THEFT BY TAKING - ALL OTHER Misdemeanor O R PER STCRT MUNCT MACT ORDER $1,000.00 2019-10180014